Time,TemperatureF,DewpointF,PressureIn,WindDirection,WindDirectionDegrees,WindSpeedMPH,WindSpeedGustMPH,Humidity,HourlyPrecipIn,Conditions,Clouds,dailyrainin,SoftwareType,DateUTC
2013-02-13 00:02:00,10.0,7.0,30.18,North,360,0.0,0.0,86,0.00,,,-99.99,,2013-02-13 07:02:00,
2013-02-13 00:11:00,10.0,6.0,30.18,North,360,0.0,0.0,84,0.00,,,-99.99,,2013-02-13 07:11:00,
2013-02-13 00:21:00,10.0,6.0,30.18,North,360,0.0,0.0,84,0.00,,,-99.99,,2013-02-13 07:21:00,
2013-02-13 00:31:00,8.0,4.0,30.18,North,360,0.0,0.0,84,0.00,,,-99.99,,2013-02-13 07:31:00,
2013-02-13 00:41:00,8.0,4.0,30.18,North,360,0.0,0.0,84,0.00,,,-99.99,,2013-02-13 07:41:00,
2013-02-13 00:51:00,8.0,4.0,30.18,North,360,0.0,0.0,84,0.00,,,-99.99,,2013-02-13 07:51:00,
2013-02-13 01:01:00,6.0,3.0,30.18,North,360,0.0,0.0,88,0.00,,,-99.99,,2013-02-13 08:01:00,
2013-02-13 01:11:00,8.0,6.0,30.18,North,360,0.0,0.0,91,0.00,,,-99.99,,2013-02-13 08:11:00,
2013-02-13 01:21:00,8.0,6.0,30.18,North,360,0.0,0.0,91,0.00,,,-99.99,,2013-02-13 08:21:00,
2013-02-13 01:31:00,7.0,4.0,30.18,North,360,0.0,0.0,88,0.00,,,-99.99,,2013-02-13 08:31:00,
2013-02-13 01:42:00,7.0,4.0,30.18,North,360,0.0,0.0,88,0.00,,,-99.99,,2013-02-13 08:42:00,
2013-02-13 01:52:00,6.0,4.0,30.17,North,360,0.0,0.0,91,0.00,,,-99.99,,2013-02-13 08:52:00,
2013-02-13 02:01:00,5.0,2.0,30.17,North,360,0.0,0.0,89,0.00,,,-99.99,,2013-02-13 09:01:00,
2013-02-13 02:11:00,6.0,4.0,30.17,North,360,0.0,0.0,91,0.00,,,-99.99,,2013-02-13 09:11:00,
2013-02-13 02:21:00,6.0,4.0,30.17,North,360,0.0,0.0,91,0.00,,,-99.99,,2013-02-13 09:21:00,
2013-02-13 02:31:00,6.0,4.0,30.17,North,360,0.0,0.0,91,0.00,,,-99.99,,2013-02-13 09:31:00,
2013-02-13 02:41:00,6.0,3.0,30.17,North,360,0.0,0.0,88,0.00,,,-99.99,,2013-02-13 09:41:00,
2013-02-13 02:51:00,6.0,3.0,30.17,North,360,0.0,0.0,88,0.00,,,-99.99,,2013-02-13 09:51:00,
2013-02-13 03:01:00,9.0,7.0,30.17,North,360,0.0,0.0,90,0.00,,,-99.99,,2013-02-13 10:01:00,
2013-02-13 03:11:00,7.0,4.0,30.17,North,360,0.0,0.0,89,0.00,,,-99.99,,2013-02-13 10:11:00,
2013-02-13 03:21:00,7.0,4.0,30.17,North,360,0.0,0.0,89,0.00,,,-99.99,,2013-02-13 10:21:00,
2013-02-13 03:31:00,9.0,6.0,30.17,North,360,0.0,0.0,87,0.00,,,-99.99,,2013-02-13 10:31:00,
2013-02-13 03:41:00,9.0,6.0,30.16,North,360,0.0,0.0,87,0.00,,,-99.99,,2013-02-13 10:41:00,
2013-02-13 03:51:00,9.0,6.0,30.16,North,360,0.0,0.0,87,0.00,,,-99.99,,2013-02-13 10:51:00,
2013-02-13 04:01:00,7.0,3.0,30.16,North,360,0.0,0.0,85,0.00,,,-99.99,,2013-02-13 11:01:00,
2013-02-13 04:11:00,5.0,2.0,30.16,North,360,0.0,0.0,86,0.00,,,-99.99,,2013-02-13 11:11:00,
2013-02-13 04:22:00,5.0,2.0,30.16,North,360,0.0,0.0,86,0.00,,,-99.99,,2013-02-13 11:22:00,
2013-02-13 04:31:00,6.0,3.0,30.16,North,360,0.0,0.0,89,0.00,,,-99.99,,2013-02-13 11:31:00,
2013-02-13 04:41:00,10.0,9.0,30.16,North,360,0.0,0.0,95,0.00,,,-99.99,,2013-02-13 11:41:00,
2013-02-13 04:52:00,10.0,9.0,30.16,North,360,0.0,0.0,95,0.00,,,-99.99,,2013-02-13 11:52:00,
2013-02-13 05:02:00,10.0,9.0,30.16,North,360,0.0,0.0,95,0.00,,,-99.99,,2013-02-13 12:02:00,
2013-02-13 05:11:00,6.0,2.0,30.16,North,360,0.0,0.0,84,0.00,,,-99.99,,2013-02-13 12:11:00,
2013-02-13 05:21:00,6.0,2.0,30.16,North,360,0.0,0.0,84,0.00,,,-99.99,,2013-02-13 12:21:00,
2013-02-13 05:31:00,6.0,2.0,30.16,North,360,0.0,0.0,84,0.00,,,-99.99,,2013-02-13 12:31:00,
2013-02-13 05:42:00,6.0,2.0,30.16,North,360,0.0,0.0,84,0.00,,,-99.99,,2013-02-13 12:42:00,
2013-02-13 05:52:00,6.0,2.0,30.16,North,360,0.0,0.0,84,0.00,,,-99.99,,2013-02-13 12:52:00,
2013-02-13 06:02:00,5.0,2.0,30.16,North,360,0.0,0.0,87,0.00,,,-99.99,,2013-02-13 13:02:00,
2013-02-13 06:11:00,5.0,2.0,30.16,North,360,0.0,0.0,87,0.00,,,-99.99,,2013-02-13 13:11:00,
2013-02-13 06:21:00,5.0,2.0,30.16,North,360,0.0,0.0,87,0.00,,,-99.99,,2013-02-13 13:21:00,
2013-02-13 06:31:00,5.0,2.0,30.16,North,360,0.0,0.0,87,0.00,,,-99.99,,2013-02-13 13:31:00,
2013-02-13 06:41:00,7.0,6.0,30.16,North,360,0.0,0.0,94,0.00,,,-99.99,,2013-02-13 13:41:00,
2013-02-13 06:52:00,7.0,6.0,30.16,North,360,0.0,0.0,94,0.00,,,-99.99,,2013-02-13 13:52:00,
2013-02-13 07:01:00,11.0,9.0,30.17,North,360,0.0,0.0,92,0.00,,,-99.99,,2013-02-13 14:01:00,
2013-02-13 07:11:00,11.0,9.0,30.17,North,360,0.0,0.0,92,0.00,,,-99.99,,2013-02-13 14:11:00,
2013-02-13 07:21:00,11.0,9.0,30.17,North,360,0.0,0.0,92,0.00,,,-99.99,,2013-02-13 14:21:00,
2013-02-13 07:31:00,11.0,9.0,30.17,North,360,0.0,0.0,92,0.00,,,-99.99,,2013-02-13 14:31:00,
2013-02-13 07:41:00,11.0,9.0,30.17,North,360,0.0,0.0,92,0.00,,,-99.99,,2013-02-13 14:41:00,
2013-02-13 08:01:00,12.0,6.0,30.18,North,360,0.0,0.0,78,0.00,,,-99.99,,2013-02-13 15:01:00,
2013-02-13 08:11:00,13.0,6.0,30.17,North,360,0.0,0.0,74,0.00,,,-99.99,,2013-02-13 15:11:00,
2013-02-13 08:21:00,13.0,6.0,30.17,North,360,0.0,0.0,74,0.00,,,-99.99,,2013-02-13 15:21:00,
2013-02-13 08:31:00,13.0,6.0,30.17,North,360,0.0,0.0,74,0.00,,,-99.99,,2013-02-13 15:31:00,
2013-02-13 08:41:00,13.0,6.0,30.17,North,360,0.0,0.0,74,0.00,,,-99.99,,2013-02-13 15:41:00,
2013-02-13 08:51:00,25.0,15.0,30.19,North,360,0.0,0.0,65,0.00,,,-99.99,,2013-02-13 15:51:00,
2013-02-13 09:01:00,27.0,15.0,30.19,North,360,0.0,0.0,60,0.00,,,-99.99,,2013-02-13 16:01:00,
2013-02-13 09:11:00,30.0,13.0,30.18,North,360,0.0,0.0,49,0.00,,,-99.99,,2013-02-13 16:11:00,
2013-02-13 09:51:00,28.0,13.0,30.19,North,360,0.0,0.0,53,0.00,,,-99.99,,2013-02-13 16:51:00,
2013-02-13 10:01:00,32.0,15.0,30.19,North,360,0.0,0.0,49,0.00,,,-99.99,,2013-02-13 17:01:00,
2013-02-13 10:31:00,33.0,15.0,30.18,North,360,0.0,0.0,48,0.00,,,-99.99,,2013-02-13 17:31:00,
2013-02-13 10:41:00,33.0,15.0,30.18,North,360,0.0,0.0,48,0.00,,,-99.99,,2013-02-13 17:41:00,
2013-02-13 10:52:00,33.0,15.0,30.18,North,360,0.0,0.0,48,0.00,,,-99.99,,2013-02-13 17:52:00,
2013-02-13 11:01:00,33.0,15.0,30.18,North,360,0.0,0.0,48,0.00,,,-99.99,,2013-02-13 18:01:00,
2013-02-13 11:11:00,29.0,17.0,30.19,North,360,0.0,0.0,61,0.00,,,-99.99,,2013-02-13 18:11:00,
2013-02-13 11:22:00,29.0,17.0,30.19,North,360,0.0,0.0,61,0.00,,,-99.99,,2013-02-13 18:22:00,
2013-02-13 11:32:00,33.0,18.0,30.19,North,360,0.0,0.0,54,0.00,,,-99.99,,2013-02-13 18:32:00,
2013-02-13 11:41:00,33.0,18.0,30.19,North,360,0.0,0.0,54,0.00,,,-99.99,,2013-02-13 18:41:00,
2013-02-13 11:51:00,33.0,18.0,30.19,North,360,0.0,0.0,54,0.00,,,-99.99,,2013-02-13 18:51:00,
2013-02-13 12:01:00,41.0,22.0,30.18,North,360,0.0,0.0,47,0.00,,,-99.99,,2013-02-13 19:01:00,
2013-02-13 12:11:00,41.0,22.0,30.18,North,360,0.0,0.0,47,0.00,,,-99.99,,2013-02-13 19:11:00,
2013-02-13 12:21:00,41.0,22.0,30.18,North,360,0.0,0.0,47,0.00,,,-99.99,,2013-02-13 19:21:00,
2013-02-13 12:31:00,46.0,24.0,30.17,North,360,0.0,0.0,41,0.00,,,-99.99,,2013-02-13 19:31:00,
2013-02-13 12:41:00,46.0,24.0,30.17,North,360,0.0,0.0,41,0.00,,,-99.99,,2013-02-13 19:41:00,
2013-02-13 12:51:00,44.0,21.0,30.17,North,360,0.0,0.0,40,0.00,,,-99.99,,2013-02-13 19:51:00,
2013-02-13 13:01:00,43.0,20.0,30.17,North,360,0.0,0.0,40,0.00,,,-99.99,,2013-02-13 20:01:00,
2013-02-13 13:11:00,43.0,23.0,30.16,North,360,0.0,0.0,44,0.00,,,-99.99,,2013-02-13 20:11:00,
2013-02-13 13:21:00,43.0,23.0,30.16,North,360,0.0,0.0,44,0.00,,,-99.99,,2013-02-13 20:21:00,
2013-02-13 13:31:00,43.0,23.0,30.16,North,360,0.0,0.0,44,0.00,,,-99.99,,2013-02-13 20:31:00,
2013-02-13 13:41:00,46.0,21.0,30.15,North,360,0.0,0.0,36,0.00,,,-99.99,,2013-02-13 20:41:00,
2013-02-13 13:52:00,46.0,21.0,30.15,North,360,0.0,0.0,36,0.00,,,-99.99,,2013-02-13 20:52:00,
2013-02-13 14:01:00,46.0,21.0,30.15,North,360,0.0,0.0,36,0.00,,,-99.99,,2013-02-13 21:01:00,
2013-02-13 14:11:00,46.0,21.0,30.15,North,360,0.0,0.0,36,0.00,,,-99.99,,2013-02-13 21:11:00,
2013-02-13 14:21:00,45.0,20.0,30.15,North,360,0.0,0.0,37,0.00,,,-99.99,,2013-02-13 21:21:00,
2013-02-13 14:31:00,46.0,21.0,30.14,North,360,0.0,0.0,37,0.00,,,-99.99,,2013-02-13 21:31:00,
2013-02-13 14:42:00,46.0,21.0,30.14,North,360,0.0,0.0,37,0.00,,,-99.99,,2013-02-13 21:42:00,
2013-02-13 14:52:00,46.0,21.0,30.14,North,360,0.0,0.0,37,0.00,,,-99.99,,2013-02-13 21:52:00,
2013-02-13 15:01:00,46.0,21.0,30.14,North,360,0.0,0.0,37,0.00,,,-99.99,,2013-02-13 22:01:00,
2013-02-13 15:11:00,49.0,25.0,30.15,North,360,0.0,0.0,38,0.00,,,-99.99,,2013-02-13 22:11:00,
2013-02-13 15:21:00,49.0,25.0,30.15,North,360,0.0,0.0,38,0.00,,,-99.99,,2013-02-13 22:21:00,
2013-02-13 15:31:00,49.0,25.0,30.15,North,360,0.0,0.0,38,0.00,,,-99.99,,2013-02-13 22:31:00,
2013-02-13 15:42:00,49.0,25.0,30.15,North,360,0.0,0.0,38,0.00,,,-99.99,,2013-02-13 22:42:00,
2013-02-13 15:51:00,47.0,24.0,30.14,North,360,0.0,0.0,40,0.00,,,-99.99,,2013-02-13 22:51:00,
2013-02-13 16:01:00,46.0,21.0,30.14,North,360,0.0,0.0,37,0.00,,,-99.99,,2013-02-13 23:01:00,
2013-02-13 16:11:00,46.0,23.0,30.15,North,360,0.0,0.0,40,0.00,,,-99.99,,2013-02-13 23:11:00,
2013-02-13 16:21:00,46.0,23.0,30.15,North,360,0.0,0.0,40,0.00,,,-99.99,,2013-02-13 23:21:00,
2013-02-13 16:31:00,46.0,24.0,30.15,North,360,0.0,0.0,41,0.00,,,-99.99,,2013-02-13 23:31:00,
2013-02-13 16:41:00,46.0,24.0,30.15,North,360,0.0,0.0,41,0.00,,,-99.99,,2013-02-13 23:41:00,
2013-02-13 16:52:00,48.0,27.0,30.14,North,360,0.0,0.0,44,0.00,,,-99.99,,2013-02-13 23:52:00,
2013-02-13 17:01:00,49.0,23.0,30.14,North,360,0.0,0.0,35,0.00,,,-99.99,,2013-02-14 00:01:00,
2013-02-13 17:11:00,49.0,23.0,30.14,North,360,0.0,0.0,35,0.00,,,-99.99,,2013-02-14 00:11:00,
2013-02-13 17:21:00,48.0,22.0,30.15,North,360,0.0,0.0,36,0.00,,,-99.99,,2013-02-14 00:21:00,
2013-02-13 17:31:00,47.0,21.0,30.14,North,360,0.0,0.0,35,0.00,,,-99.99,,2013-02-14 00:31:00,
2013-02-13 17:41:00,47.0,21.0,30.14,North,360,0.0,0.0,35,0.00,,,-99.99,,2013-02-14 00:41:00,
2013-02-13 17:51:00,47.0,20.0,30.14,North,360,0.0,0.0,34,0.00,,,-99.99,,2013-02-14 00:51:00,
2013-02-13 18:01:00,44.0,19.0,30.14,North,360,0.0,0.0,36,0.00,,,-99.99,,2013-02-14 01:01:00,
2013-02-13 18:11:00,44.0,19.0,30.14,North,360,0.0,0.0,36,0.00,,,-99.99,,2013-02-14 01:11:00,
2013-02-13 18:21:00,44.0,19.0,30.14,North,360,0.0,0.0,36,0.00,,,-99.99,,2013-02-14 01:21:00,
2013-02-13 18:31:00,40.0,17.0,30.16,North,360,0.0,0.0,39,0.00,,,-99.99,,2013-02-14 01:31:00,
2013-02-13 18:41:00,40.0,17.0,30.16,North,360,0.0,0.0,39,0.00,,,-99.99,,2013-02-14 01:41:00,
2013-02-13 18:51:00,40.0,18.0,30.16,North,360,0.0,0.0,40,0.00,,,-99.99,,2013-02-14 01:51:00,
2013-02-13 19:01:00,40.0,18.0,30.16,North,360,0.0,0.0,40,0.00,,,-99.99,,2013-02-14 02:01:00,
2013-02-13 19:11:00,32.0,16.0,30.16,North,360,0.0,0.0,52,0.00,,,-99.99,,2013-02-14 02:11:00,
2013-02-13 19:21:00,32.0,16.0,30.16,North,360,0.0,0.0,52,0.00,,,-99.99,,2013-02-14 02:21:00,
2013-02-13 19:32:00,35.0,17.0,30.16,North,360,0.0,0.0,48,0.00,,,-99.99,,2013-02-14 02:32:00,
2013-02-13 19:42:00,35.0,17.0,30.16,North,360,0.0,0.0,48,0.00,,,-99.99,,2013-02-14 02:42:00,
2013-02-13 19:51:00,35.0,17.0,30.16,North,360,0.0,0.0,48,0.00,,,-99.99,,2013-02-14 02:51:00,
2013-02-13 20:02:00,32.0,16.0,30.17,North,360,0.0,0.0,51,0.00,,,-99.99,,2013-02-14 03:02:00,
2013-02-13 20:11:00,32.0,16.0,30.17,North,360,0.0,0.0,51,0.00,,,-99.99,,2013-02-14 03:11:00,
2013-02-13 20:21:00,32.0,16.0,30.17,North,360,0.0,0.0,51,0.00,,,-99.99,,2013-02-14 03:21:00,
2013-02-13 20:31:00,27.0,15.0,30.17,North,360,0.0,0.0,59,0.00,,,-99.99,,2013-02-14 03:31:00,
2013-02-13 20:42:00,27.0,15.0,30.17,North,360,0.0,0.0,59,0.00,,,-99.99,,2013-02-14 03:42:00,
2013-02-13 20:52:00,27.0,15.0,30.17,North,360,0.0,0.0,59,0.00,,,-99.99,,2013-02-14 03:52:00,
2013-02-13 21:01:00,25.0,15.0,30.17,North,360,0.0,0.0,66,0.00,,,-99.99,,2013-02-14 04:01:00,
2013-02-13 21:11:00,25.0,15.0,30.17,North,360,0.0,0.0,66,0.00,,,-99.99,,2013-02-14 04:11:00,
2013-02-13 21:21:00,25.0,15.0,30.17,North,360,0.0,0.0,66,0.00,,,-99.99,,2013-02-14 04:21:00,
2013-02-13 21:31:00,25.0,15.0,30.17,North,360,0.0,0.0,66,0.00,,,-99.99,,2013-02-14 04:31:00,
2013-02-13 21:41:00,25.0,15.0,30.17,North,360,0.0,0.0,66,0.00,,,-99.99,,2013-02-14 04:41:00,
2013-02-13 21:51:00,23.0,15.0,30.17,North,360,0.0,0.0,71,0.00,,,-99.99,,2013-02-14 04:51:00,
2013-02-13 22:01:00,23.0,15.0,30.17,North,360,0.0,0.0,71,0.00,,,-99.99,,2013-02-14 05:01:00,
2013-02-13 22:11:00,23.0,15.0,30.17,North,360,0.0,0.0,71,0.00,,,-99.99,,2013-02-14 05:11:00,
2013-02-13 22:21:00,20.0,13.0,30.17,North,360,0.0,0.0,75,0.00,,,-99.99,,2013-02-14 05:21:00,
2013-02-13 22:31:00,20.0,13.0,30.17,North,360,0.0,0.0,75,0.00,,,-99.99,,2013-02-14 05:31:00,
2013-02-13 22:41:00,20.0,13.0,30.17,North,360,0.0,0.0,75,0.00,,,-99.99,,2013-02-14 05:41:00,
2013-02-13 22:51:00,22.0,15.0,30.17,North,360,0.0,0.0,73,0.00,,,-99.99,,2013-02-14 05:51:00,
2013-02-13 23:01:00,22.0,14.0,30.17,North,360,0.0,0.0,71,0.00,,,-99.99,,2013-02-14 06:01:00,
2013-02-13 23:11:00,19.0,13.0,30.17,North,360,0.0,0.0,78,0.00,,,-99.99,,2013-02-14 06:11:00,
2013-02-13 23:21:00,19.0,13.0,30.17,North,360,0.0,0.0,78,0.00,,,-99.99,,2013-02-14 06:21:00,
2013-02-13 23:31:00,19.0,14.0,30.17,North,360,0.0,0.0,79,0.00,,,-99.99,,2013-02-14 06:31:00,
2013-02-13 23:42:00,19.0,14.0,30.17,North,360,0.0,0.0,79,0.00,,,-99.99,,2013-02-14 06:42:00,
2013-02-13 23:51:00,20.0,12.0,30.18,North,360,0.0,0.0,71,0.00,,,-99.99,,2013-02-14 06:51:00,